createdAt,value
2024-01-06T00:00:21.844Z,101865.34
2024-01-06T00:03:08.758Z,101871.94
2024-01-06T00:05:55.758Z,101876.28
2024-01-06T00:08:42.753Z,101884.50
2024-01-06T00:11:30.626Z,101877.78
2024-01-06T00:14:17.526Z,101884.50
2024-01-06T00:17:04.404Z,101888.47
2024-01-06T00:19:51.373Z,101893.66
2024-01-06T00:22:39.321Z,101894.41
2024-01-06T00:25:26.726Z,101908.75
2024-01-06T00:28:13.638Z,101903.19
2024-01-06T00:31:00.651Z,101919.50
2024-01-06T00:33:47.705Z,101926.25
2024-01-06T00:36:34.963Z,101921.94
2024-01-06T00:39:21.944Z,101906.88
2024-01-06T00:42:08.992Z,101907.13
2024-01-06T00:44:57.389Z,101928.44
2024-01-06T00:47:44.430Z,101925.91
2024-01-06T00:50:31.507Z,101914.38
2024-01-06T00:53:18.352Z,101890.94
2024-01-06T00:56:05.208Z,101932.47
2024-01-06T00:58:52.159Z,101941.59
2024-01-06T01:01:39.133Z,101946.66
2024-01-06T01:04:26.082Z,101934.91
2024-01-06T01:07:12.953Z,101940.63
2024-01-06T01:10:00.186Z,101912.91
2024-01-06T01:12:47.219Z,101942.13
2024-01-06T01:15:34.248Z,101953.13
2024-01-06T01:18:21.232Z,101939.84
2024-01-06T01:21:08.892Z,101964.94
2024-01-06T01:23:55.912Z,101965.69
2024-01-06T01:26:42.740Z,101969.00
2024-01-06T01:29:29.575Z,101897.50
2024-01-06T01:32:16.630Z,101969.41
2024-01-06T01:35:03.560Z,101978.13
2024-01-06T01:37:50.465Z,101979.66
2024-01-06T01:40:37.402Z,101984.84
2024-01-06T01:43:24.365Z,101986.38
2024-01-06T01:46:18.147Z,101998.16
2024-01-06T01:49:05.231Z,101998.91
2024-01-06T01:51:55.376Z,101992.94
2024-01-06T01:54:42.566Z,101999.69
2024-01-06T01:57:31.271Z,101998.78
2024-01-06T02:00:18.280Z,102000.31
2024-01-06T02:03:05.491Z,102007.91
2024-01-06T02:05:52.523Z,102009.56
2024-01-06T02:08:39.360Z,102008.31
2024-01-06T02:11:26.781Z,102012.13
2024-01-06T02:14:13.634Z,102022.25
2024-01-06T02:17:00.485Z,101998.34
2024-01-06T02:19:47.540Z,102002.75
2024-01-06T02:22:34.560Z,102024.00
2024-01-06T02:25:21.697Z,102010.72
2024-01-06T02:28:08.547Z,102030.84
2024-01-06T02:30:55.508Z,102028.06
2024-01-06T02:33:42.488Z,102029.84
2024-01-06T02:36:29.663Z,102042.78
2024-01-06T02:39:16.557Z,102040.38
2024-01-06T02:42:03.403Z,102047.19
2024-01-06T02:44:50.244Z,102047.19
2024-01-06T02:47:37.172Z,102045.69
2024-01-06T02:50:24.790Z,102047.47
2024-01-06T02:53:11.684Z,102051.88
2024-01-06T02:55:58.617Z,102048.59
2024-01-06T02:58:45.490Z,102059.78
2024-01-06T03:01:32.965Z,102054.41
2024-01-06T03:04:19.939Z,102064.31
2024-01-06T03:07:06.886Z,102050.63
2024-01-06T03:09:53.733Z,102065.47
2024-01-06T03:12:40.775Z,102063.94
2024-01-06T03:15:27.984Z,102068.25
2024-01-06T03:18:15.150Z,102072.69
2024-01-06T03:21:02.243Z,102073.84
2024-01-06T03:23:49.094Z,102078.13
2024-01-06T03:26:35.977Z,102088.53
2024-01-06T03:29:22.817Z,102084.59
2024-01-06T03:32:09.728Z,102087.25
2024-01-06T03:34:56.726Z,102091.81
2024-01-06T03:37:43.697Z,102078.22
2024-01-06T03:40:31.037Z,102081.19
2024-01-06T03:43:17.918Z,102090.69
2024-01-06T03:46:04.810Z,102084.22
2024-01-06T03:48:51.871Z,102089.53
2024-01-06T03:51:39.031Z,102086.34
2024-01-06T03:54:26.124Z,102087.38
2024-01-06T03:57:13.115Z,102093.56
2024-01-06T04:00:00.094Z,102097.25
2024-01-06T04:02:46.898Z,102110.19
2024-01-06T04:05:33.867Z,102100.41
2024-01-06T04:08:20.922Z,102105.69
2024-01-06T04:11:07.877Z,102105.81
2024-01-06T04:13:54.706Z,102113.06
2024-01-06T04:16:41.766Z,102097.09
2024-01-06T04:19:28.786Z,102123.59
2024-01-06T04:22:15.807Z,102126.50
2024-01-06T04:25:02.794Z,102122.41
2024-01-06T04:27:49.773Z,102126.22
2024-01-06T04:30:37.024Z,102129.88
2024-01-06T04:33:24.198Z,102133.53
2024-01-06T04:36:11.100Z,102130.50
2024-01-06T04:38:57.989Z,102129.84
2024-01-06T04:41:44.953Z,102094.97
2024-01-06T04:44:32.054Z,102139.75
2024-01-06T04:47:18.914Z,102138.31
2024-01-06T04:50:06.367Z,102142.13
2024-01-06T04:52:53.280Z,102144.00
2024-01-06T04:55:40.225Z,102131.44
2024-01-06T04:58:27.205Z,102142.22
2024-01-06T05:01:14.397Z,102150.09
2024-01-06T05:04:01.351Z,102149.69
2024-01-06T05:06:48.328Z,102156.75
2024-01-06T05:09:35.154Z,102162.09
2024-01-06T05:12:22.043Z,102159.78
2024-01-06T05:15:08.848Z,102158.50
2024-01-06T05:17:55.919Z,102165.56
2024-01-06T05:20:42.881Z,102160.88
2024-01-06T05:23:29.788Z,102166.31
2024-01-06T05:26:17.212Z,102161.59
2024-01-06T05:29:04.502Z,102166.00
2024-01-06T05:31:51.431Z,102169.69
2024-01-06T05:34:38.603Z,102173.31
2024-01-06T05:37:25.700Z,102178.03
2024-01-06T05:40:12.639Z,102180.69
2024-01-06T05:42:59.837Z,102166.59
2024-01-06T05:45:46.974Z,102191.44
2024-01-06T05:48:34.180Z,102205.66
2024-01-06T05:51:21.145Z,102204.34
2024-01-06T05:54:08.012Z,102209.66
2024-01-06T05:56:54.842Z,102209.88
2024-01-06T05:59:41.690Z,102217.13
2024-01-06T06:02:28.562Z,102225.13
2024-01-06T06:05:15.464Z,102160.81
2024-01-06T06:08:02.367Z,102226.59
2024-01-06T06:10:49.274Z,102234.47
2024-01-06T06:13:36.123Z,102232.28
2024-01-06T06:16:23.061Z,102240.28
2024-01-06T06:19:10.000Z,102243.13
2024-01-06T06:21:56.985Z,102241.03
2024-01-06T06:24:43.939Z,102242.94
2024-01-06T06:27:30.829Z,102255.25
2024-01-06T06:30:17.900Z,102246.06
2024-01-06T06:33:04.862Z,102247.97
2024-01-06T06:35:51.861Z,102266.25
2024-01-06T06:38:38.712Z,102256.94
2024-01-06T06:41:25.625Z,102265.94
2024-01-06T06:44:12.469Z,102276.47
2024-01-06T06:46:59.418Z,102283.44
2024-01-06T06:49:46.383Z,102283.81
2024-01-06T06:52:33.261Z,102267.28
2024-01-06T06:55:20.120Z,102285.16
2024-01-06T06:58:07.060Z,102285.38
2024-01-06T07:00:54.252Z,102285.72
2024-01-06T07:03:41.697Z,102270.41
2024-01-06T07:06:28.995Z,102298.16
2024-01-06T07:09:16.557Z,102298.06
2024-01-06T07:12:03.415Z,102260.22
2024-01-06T07:14:50.217Z,102321.00
2024-01-06T07:17:37.301Z,102315.06
2024-01-06T07:20:24.355Z,102335.13
2024-01-06T07:23:11.267Z,102274.97
2024-01-06T07:25:58.153Z,102332.00
2024-01-06T07:28:45.230Z,102339.25
2024-01-06T07:31:32.314Z,102330.94
2024-01-06T07:34:19.566Z,102338.81
2024-01-06T07:37:06.587Z,102338.22
2024-01-06T07:39:53.519Z,102335.03
2024-01-06T07:42:40.550Z,102295.00
2024-01-06T07:45:27.963Z,102344.88
2024-01-06T07:48:15.340Z,102351.00
2024-01-06T07:51:02.663Z,102353.78
2024-01-06T07:53:49.626Z,102349.69
2024-01-06T07:56:36.576Z,102368.84
2024-01-06T07:59:24.786Z,102368.97
2024-01-06T08:02:11.702Z,102376.97
2024-01-06T08:04:58.584Z,102375.31
2024-01-06T08:07:49.301Z,102388.53
2024-01-06T08:10:36.131Z,102361.88
2024-01-06T08:13:22.973Z,102396.28
2024-01-06T08:16:09.907Z,102401.94
2024-01-06T08:18:57.314Z,102398.75
2024-01-06T08:21:44.341Z,102396.97
2024-01-06T08:24:31.232Z,102401.75
2024-01-06T08:27:18.164Z,102407.31
2024-01-06T08:30:05.202Z,102411.84
2024-01-06T08:32:52.214Z,102415.31
2024-01-06T08:35:39.121Z,102412.97
2024-01-06T08:38:26.057Z,102427.94
2024-01-06T08:41:12.866Z,102435.84
2024-01-06T08:43:59.761Z,102436.94
2024-01-06T08:46:47.301Z,102421.88
2024-01-06T08:49:34.323Z,102445.97
2024-01-06T08:52:21.274Z,102443.72
2024-01-06T08:55:08.169Z,102449.06
2024-01-06T08:57:55.257Z,102451.94
2024-01-06T09:00:38.687Z,102452.81
2024-01-06T09:03:05.816Z,102458.41
2024-01-06T09:05:33.274Z,102467.13
2024-01-06T09:08:00.201Z,102458.91
2024-01-06T09:10:27.193Z,102466.81
2024-01-06T09:12:54.193Z,102463.56
2024-01-06T09:15:21.307Z,102470.56
2024-01-06T09:17:48.392Z,102475.13
2024-01-06T09:20:15.505Z,102469.34
2024-01-06T09:22:42.648Z,102470.44
2024-01-06T09:25:09.596Z,102476.69
2024-01-06T09:27:36.591Z,102480.22
2024-01-06T09:30:03.673Z,102477.13
2024-01-06T09:32:30.707Z,102477.34
2024-01-06T09:34:57.847Z,102471.09
2024-01-06T09:37:24.874Z,102478.53
2024-01-06T09:39:51.939Z,102488.97
2024-01-06T09:42:18.953Z,102481.88
2024-01-06T09:44:46.700Z,102493.66
2024-01-06T09:47:13.954Z,102491.31
2024-01-06T09:49:48.201Z,102492.38
2024-01-06T09:52:19.201Z,102487.28
2024-01-06T09:54:53.152Z,102469.63
2024-01-06T09:57:21.311Z,102493.81
2024-01-06T09:59:48.436Z,102501.94
2024-01-06T10:02:17.594Z,102501.28
2024-01-06T10:04:45.353Z,102508.38
2024-01-06T10:07:15.017Z,102495.47
2024-01-06T10:09:45.652Z,102518.13
2024-01-06T10:12:12.830Z,102514.13
2024-01-06T10:14:41.108Z,102517.69
2024-01-06T10:17:09.156Z,102517.00
2024-01-06T10:19:37.731Z,102519.88
2024-01-06T10:22:05.483Z,102498.97
2024-01-06T10:24:33.089Z,102504.31
2024-01-06T10:27:00.456Z,102522.09
2024-01-06T10:29:28.492Z,102517.75
2024-01-06T10:31:56.380Z,102510.66
2024-01-06T10:34:24.818Z,102529.41
2024-01-06T10:36:55.131Z,102524.50
2024-01-06T10:39:23.093Z,102507.59
2024-01-06T10:41:50.874Z,102532.56
2024-01-06T10:44:18.573Z,102526.00
2024-01-06T10:46:46.373Z,102525.31
2024-01-06T10:49:13.925Z,102532.31
2024-01-06T10:51:41.728Z,102540.22
2024-01-06T10:54:10.788Z,102536.06
2024-01-06T10:56:42.137Z,102535.41
2024-01-06T10:59:09.977Z,102542.41
2024-01-06T11:01:37.518Z,102539.94
2024-01-06T11:04:06.073Z,102542.50
2024-01-06T11:06:37.020Z,102544.38
2024-01-06T11:09:23.115Z,102545.38
2024-01-06T11:11:50.517Z,102557.38
2024-01-06T11:14:21.903Z,102545.84
2024-01-06T11:16:49.552Z,102560.06
2024-01-06T11:19:35.670Z,102563.63
2024-01-06T11:22:29.967Z,102567.94
2024-01-06T11:25:04.590Z,102566.28
2024-01-06T11:27:32.536Z,102568.03
2024-01-06T11:30:07.830Z,102567.28
2024-01-06T11:32:41.973Z,102566.38
2024-01-06T11:35:14.125Z,102574.28
2024-01-06T11:37:41.102Z,102570.91
2024-01-06T11:40:25.039Z,102569.16
2024-01-06T11:43:11.272Z,102574.59
2024-01-06T11:45:42.660Z,102575.50
2024-01-06T11:48:14.017Z,102580.72
2024-01-06T11:50:41.974Z,102580.72
2024-01-06T11:53:12.720Z,102580.81
2024-01-06T11:55:41.040Z,102583.50
2024-01-06T11:58:08.256Z,102586.16
2024-01-06T12:00:38.152Z,102592.28
2024-01-06T12:03:05.584Z,102604.19
2024-01-06T12:05:32.521Z,102598.28
2024-01-06T12:08:01.694Z,102599.16
2024-01-06T12:10:30.202Z,102596.72
2024-01-06T12:13:01.586Z,102601.84
2024-01-06T12:15:33.448Z,102546.72
2024-01-06T12:18:03.720Z,102595.91
2024-01-06T12:20:31.117Z,102596.81
2024-01-06T12:22:58.161Z,102601.16
2024-01-06T12:25:26.965Z,102602.75
2024-01-06T12:27:57.168Z,102601.94
2024-01-06T12:30:25.639Z,102580.31
2024-01-06T12:32:55.747Z,102606.16
2024-01-06T12:35:23.886Z,102610.53
2024-01-06T12:37:52.601Z,102617.41
2024-01-06T12:40:21.304Z,102614.84
2024-01-06T12:42:48.579Z,102617.41
2024-01-06T12:45:17.600Z,102622.66
2024-01-06T12:47:45.119Z,102630.22
2024-01-06T12:50:12.242Z,102626.09
2024-01-06T12:52:40.518Z,102627.78
2024-01-06T12:55:08.992Z,102632.09
2024-01-06T12:57:36.788Z,102616.22
2024-01-06T13:00:04.667Z,102629.44
2024-01-06T13:02:31.640Z,102628.66
2024-01-06T13:04:59.198Z,102625.09
2024-01-06T13:07:26.672Z,102632.09
2024-01-06T13:09:53.735Z,102632.09
2024-01-06T13:12:21.150Z,102620.47
2024-01-06T13:14:48.680Z,102639.69
2024-01-06T13:17:15.963Z,102628.47
2024-01-06T13:19:43.169Z,102644.91
2024-01-06T13:22:10.216Z,102650.94
2024-01-06T13:24:37.563Z,102653.50
2024-01-06T13:27:05.882Z,102653.28
2024-01-06T13:29:33.434Z,102662.09
2024-01-06T13:32:00.762Z,102658.53
2024-01-06T13:34:28.467Z,102671.44
2024-01-06T13:36:57.356Z,102666.31
2024-01-06T13:39:25.143Z,102673.09
2024-01-06T13:41:52.529Z,102638.31
2024-01-06T13:44:19.698Z,102670.44
2024-01-06T13:46:47.339Z,102675.56
2024-01-06T13:49:14.860Z,102682.38
2024-01-06T13:51:42.163Z,102680.78
2024-01-06T13:54:10.639Z,102685.03
2024-01-06T13:56:38.238Z,102688.38
2024-01-06T13:59:05.409Z,102641.91
2024-01-06T14:01:33.134Z,102686.59
2024-01-06T14:04:00.770Z,102680.56
2024-01-06T14:06:31.976Z,102681.38
2024-01-06T14:09:00.123Z,102694.19
2024-01-06T14:11:27.816Z,102691.50
2024-01-06T14:13:54.998Z,102693.19
2024-01-06T14:16:22.092Z,102685.50
2024-01-06T14:18:49.540Z,102690.50
2024-01-06T14:21:20.567Z,102696.53
2024-01-06T14:23:49.365Z,102709.13
2024-01-06T14:26:18.213Z,102715.25
2024-01-06T14:28:45.150Z,102660.31
2024-01-06T14:31:12.164Z,102706.25
2024-01-06T14:33:39.359Z,102715.81
2024-01-06T14:36:06.787Z,102719.47
2024-01-06T14:38:33.674Z,102728.72
2024-01-06T14:41:00.645Z,102733.97
2024-01-06T14:43:27.627Z,102742.53
2024-01-06T14:45:54.698Z,102738.31
2024-01-06T14:48:22.000Z,102745.09
2024-01-06T14:50:49.731Z,102734.84
2024-01-06T14:53:16.662Z,102730.75
2024-01-06T14:55:43.525Z,102728.19
2024-01-06T14:58:10.475Z,102724.81
2024-01-06T15:00:37.646Z,102729.03
2024-01-06T15:03:04.867Z,102719.81
2024-01-06T15:05:32.529Z,102730.16
2024-01-06T15:07:59.631Z,102725.16
2024-01-06T15:10:26.603Z,102726.81
2024-01-06T15:13:13.528Z,102731.16
2024-01-06T15:16:00.649Z,102727.59
2024-01-06T15:18:47.637Z,102739.94
2024-01-06T15:21:34.828Z,102721.16
2024-01-06T15:24:22.403Z,102738.16
2024-01-06T15:27:09.262Z,102752.19
2024-01-06T15:29:56.140Z,102753.97
2024-01-06T15:32:43.127Z,102749.75
2024-01-06T15:35:32.740Z,102730.06
2024-01-06T15:38:19.667Z,102752.41
2024-01-06T15:41:07.647Z,102756.84
2024-01-06T15:43:54.531Z,102763.19
2024-01-06T15:46:41.446Z,102759.75
2024-01-06T15:49:28.554Z,102756.53
2024-01-06T15:52:15.602Z,102763.63
2024-01-06T15:55:02.814Z,102754.38
2024-01-06T15:57:49.788Z,102765.59
2024-01-06T16:00:37.665Z,102757.16
2024-01-06T16:03:24.995Z,102770.28
2024-01-06T16:06:11.894Z,102731.75
2024-01-06T16:08:58.843Z,102768.03
2024-01-06T16:11:45.685Z,102769.03
2024-01-06T16:14:34.216Z,102776.06
2024-01-06T16:17:22.846Z,102782.16
2024-01-06T16:20:09.872Z,102773.28
2024-01-06T16:22:56.867Z,102793.63
2024-01-06T16:25:43.829Z,102788.41
2024-01-06T16:28:30.744Z,102793.09
2024-01-06T16:31:18.594Z,102793.28
2024-01-06T16:34:06.885Z,102800.28
2024-01-06T16:36:54.164Z,102799.59
2024-01-06T16:39:41.123Z,102801.47
2024-01-06T16:42:28.149Z,102800.78
2024-01-06T16:45:15.150Z,102797.09
2024-01-06T16:48:02.091Z,102794.00
2024-01-06T16:50:49.007Z,102798.75
2024-01-06T16:53:35.848Z,102753.13
2024-01-06T16:56:25.794Z,102749.59
2024-01-06T16:59:12.689Z,102794.91
2024-01-06T17:01:59.635Z,102788.22
2024-01-06T17:04:46.929Z,102786.63
2024-01-06T17:07:34.180Z,102786.84
2024-01-06T17:10:21.137Z,102770.94
2024-01-06T17:13:08.119Z,102779.34
2024-01-06T17:15:55.086Z,102786.50
2024-01-06T17:18:42.153Z,102772.84
2024-01-06T17:21:29.130Z,102782.44
2024-01-06T17:24:15.999Z,102740.34
2024-01-06T17:27:02.942Z,102776.72
2024-01-06T17:29:49.834Z,102771.81
2024-01-06T17:32:36.843Z,102782.16
2024-01-06T17:35:24.215Z,102766.56
2024-01-06T17:38:11.225Z,102778.25
2024-01-06T17:40:58.616Z,102777.53
2024-01-06T17:43:45.495Z,102784.44
2024-01-06T17:46:32.296Z,102775.06
2024-01-06T17:49:19.555Z,102774.19
2024-01-06T17:52:08.076Z,102781.31
2024-01-06T17:54:55.993Z,102782.28
2024-01-06T17:57:43.520Z,102796.94
2024-01-06T18:00:30.785Z,102799.59
2024-01-06T18:03:17.763Z,102803.94
2024-01-06T18:06:04.893Z,102805.59
2024-01-06T18:08:51.903Z,102805.81
2024-01-06T18:11:38.925Z,102806.59
2024-01-06T18:17:36.922Z,102811.03
2024-01-06T18:20:24.176Z,102810.28
2024-01-06T18:23:11.040Z,102820.53
2024-01-06T18:25:58.223Z,102826.66
2024-01-06T18:28:45.041Z,102834.34
2024-01-06T18:31:32.014Z,102836.16
2024-01-06T18:34:19.144Z,102841.28
2024-01-06T18:37:06.290Z,102833.38
2024-01-06T18:39:53.486Z,102837.13
2024-01-06T18:42:40.430Z,102841.41
2024-01-06T18:45:27.630Z,102849.19
2024-01-06T18:48:17.224Z,102837.72
2024-01-06T18:51:04.402Z,102849.31
2024-01-06T18:53:51.273Z,102856.09
2024-01-06T18:56:38.224Z,102858.56
2024-01-06T18:59:25.083Z,102865.28
2024-01-06T19:02:11.885Z,102865.28
2024-01-06T19:04:58.796Z,102866.88
2024-01-06T19:07:45.642Z,102847.69
2024-01-06T19:10:34.851Z,102821.53
2024-01-06T19:13:23.591Z,102846.13
2024-01-06T19:16:10.516Z,102851.16
2024-01-06T19:18:57.551Z,102857.06
2024-01-06T19:21:44.402Z,102850.06
2024-01-06T19:24:36.418Z,102859.41
2024-01-06T19:27:30.009Z,102852.91
2024-01-06T19:30:16.912Z,102857.44
2024-01-06T19:33:03.816Z,102857.44
2024-01-06T19:35:50.802Z,102864.16
2024-01-06T19:38:37.672Z,102841.97
2024-01-06T19:41:24.922Z,102855.25
2024-01-06T19:44:11.780Z,102861.16
2024-01-06T19:46:58.646Z,102873.91
2024-01-06T19:49:45.635Z,102866.00
2024-01-06T19:52:32.712Z,102864.13
2024-01-06T19:55:19.523Z,102870.81
2024-01-06T19:58:06.644Z,102874.84
2024-01-06T20:00:53.769Z,102874.63
2024-01-06T20:03:40.779Z,102871.09
2024-01-06T20:06:37.287Z,102876.00
2024-01-06T20:09:24.274Z,102825.72
2024-01-06T20:12:11.248Z,102886.63
2024-01-06T20:14:58.152Z,102889.88
2024-01-06T20:17:45.670Z,102887.09
2024-01-06T20:20:32.628Z,102883.41
2024-01-06T20:23:19.561Z,102888.22
2024-01-06T20:26:06.641Z,102884.53
2024-01-06T20:28:53.524Z,102884.31
2024-01-06T20:31:40.618Z,102892.75
2024-01-06T20:34:27.897Z,102884.84
2024-01-06T20:37:14.827Z,102883.72
2024-01-06T20:40:01.700Z,102889.31
2024-01-06T20:42:48.629Z,102897.69
2024-01-06T20:45:35.676Z,102892.44
2024-01-06T20:48:22.910Z,102886.97
2024-01-06T20:51:09.839Z,102896.91
2024-01-06T20:53:56.699Z,102877.31
2024-01-06T20:56:43.499Z,102895.38
2024-01-06T20:59:30.358Z,102867.97
2024-01-06T21:02:17.514Z,102906.06
2024-01-06T21:05:04.542Z,102908.41
2024-01-06T21:07:51.913Z,102904.63
2024-01-06T21:10:38.848Z,102902.50
2024-01-06T21:13:25.788Z,102897.63
2024-01-06T21:16:12.923Z,102903.41
2024-01-06T21:18:59.878Z,102904.19
2024-01-06T21:21:46.998Z,102904.41
2024-01-06T21:24:34.105Z,102918.31
2024-01-06T21:27:21.135Z,102891.47
2024-01-06T21:30:08.094Z,102920.44
2024-01-06T21:32:55.263Z,102916.63
2024-01-06T21:35:42.313Z,102914.88
2024-01-06T21:38:29.330Z,102925.78
2024-01-06T21:41:16.137Z,102914.41
2024-01-06T21:44:03.181Z,102907.28
2024-01-06T21:46:49.989Z,102916.63
2024-01-06T21:49:36.987Z,102914.75
2024-01-06T21:52:24.209Z,102909.41
2024-01-06T21:55:11.113Z,102909.19
2024-01-06T21:57:58.283Z,102902.25
2024-01-06T22:00:45.132Z,102893.13
2024-01-06T22:03:32.451Z,102915.50
2024-01-06T22:06:20.593Z,102919.59
2024-01-06T22:09:11.425Z,102926.25
2024-01-06T22:12:00.307Z,102921.69
2024-01-06T22:14:47.180Z,102913.00
2024-01-06T22:17:36.976Z,102911.13
2024-01-06T22:20:23.999Z,102902.78
2024-01-06T22:23:10.875Z,102909.91
2024-01-06T22:25:57.805Z,102900.44
2024-01-06T22:28:44.806Z,102920.59
2024-01-06T22:31:32.026Z,102895.16
2024-01-06T22:34:19.238Z,102885.97
2024-01-06T22:37:09.306Z,102928.47
2024-01-06T22:39:56.297Z,102926.66
2024-01-06T22:42:43.238Z,102942.69
2024-01-06T22:45:30.344Z,102943.31
2024-01-06T22:48:18.499Z,102950.88
2024-01-06T22:51:05.358Z,102956.66
2024-01-06T22:53:52.324Z,102947.84
2024-01-06T22:56:39.132Z,102944.31
2024-01-06T22:59:26.049Z,102947.50
2024-01-06T23:02:13.396Z,102897.69
2024-01-06T23:05:00.357Z,102942.81
2024-01-06T23:07:47.178Z,102951.28
2024-01-06T23:10:34.051Z,102939.66
2024-01-06T23:13:21.067Z,102947.91
2024-01-06T23:16:07.945Z,102956.56
2024-01-06T23:18:55.129Z,102954.13
2024-01-06T23:21:42.016Z,102953.13
2024-01-06T23:24:28.923Z,102956.19
2024-01-06T23:27:15.810Z,102958.75
2024-01-06T23:30:02.663Z,102958.50
2024-01-06T23:32:50.893Z,102964.41
2024-01-06T23:35:37.820Z,102968.50
2024-01-06T23:38:25.000Z,102970.03
2024-01-06T23:41:11.907Z,102960.78
2024-01-06T23:43:59.152Z,102978.13
2024-01-06T23:46:45.939Z,102978.00
2024-01-06T23:49:34.329Z,102970.75
2024-01-06T23:52:21.207Z,102969.97
2024-01-06T23:55:08.047Z,102972.28
2024-01-06T23:57:55.195Z,102967.72
